sensor_id;sensor_type;location;lat;lon;timestamp;P1;durP1;ratioP1;P2;durP2;ratioP2
40623;SDS011;26325;48.594;11.650;2023-05-23T00:02:03;7.90;;;7.15;;
40623;SDS011;26325;48.594;11.650;2023-05-23T00:04:32;8.05;;;7.45;;
40623;SDS011;26325;48.594;11.650;2023-05-23T00:07:02;8.30;;;7.70;;
40623;SDS011;26325;48.594;11.650;2023-05-23T00:09:28;8.38;;;7.68;;
40623;SDS011;26325;48.594;11.650;2023-05-23T00:14:21;7.90;;;7.30;;
40623;SDS011;26325;48.594;11.650;2023-05-23T00:16:47;8.10;;;7.50;;
40623;SDS011;26325;48.594;11.650;2023-05-23T00:21:42;8.02;;;7.38;;
40623;SDS011;26325;48.594;11.650;2023-05-23T00:24:12;8.13;;;7.35;;
40623;SDS011;26325;48.594;11.650;2023-05-23T00:26:43;8.40;;;7.60;;
40623;SDS011;26325;48.594;11.650;2023-05-23T00:29:09;8.13;;;7.53;;
40623;SDS011;26325;48.594;11.650;2023-05-23T00:31:43;9.10;;;8.25;;
40623;SDS011;26325;48.594;11.650;2023-05-23T00:34:16;9.13;;;8.35;;
40623;SDS011;26325;48.594;11.650;2023-05-23T00:36:45;8.98;;;8.18;;
40623;SDS011;26325;48.594;11.650;2023-05-23T00:39:16;9.13;;;8.43;;
40623;SDS011;26325;48.594;11.650;2023-05-23T00:41:48;8.65;;;8.05;;
40623;SDS011;26325;48.594;11.650;2023-05-23T00:44:15;8.50;;;7.70;;
40623;SDS011;26325;48.594;11.650;2023-05-23T00:46:44;8.00;;;7.40;;
40623;SDS011;26325;48.594;11.650;2023-05-23T00:49:13;8.20;;;7.50;;
40623;SDS011;26325;48.594;11.650;2023-05-23T00:51:44;8.90;;;7.30;;
40623;SDS011;26325;48.594;11.650;2023-05-23T00:54:10;7.80;;;7.20;;
40623;SDS011;26325;48.594;11.650;2023-05-23T00:56:37;9.25;;;8.45;;
40623;SDS011;26325;48.594;11.650;2023-05-23T01:01:30;9.98;;;9.07;;
40623;SDS011;26325;48.594;11.650;2023-05-23T01:06:22;9.45;;;8.65;;
40623;SDS011;26325;48.594;11.650;2023-05-23T01:11:23;9.70;;;8.88;;
40623;SDS011;26325;48.594;11.650;2023-05-23T01:14:16;9.70;;;9.00;;
40623;SDS011;26325;48.594;11.650;2023-05-23T01:16:49;9.77;;;8.90;;
40623;SDS011;26325;48.594;11.650;2023-05-23T01:21:52;9.65;;;8.82;;
40623;SDS011;26325;48.594;11.650;2023-05-23T01:24:35;8.95;;;8.25;;
40623;SDS011;26325;48.594;11.650;2023-05-23T01:30:10;9.10;;;8.27;;
40623;SDS011;26325;48.594;11.650;2023-05-23T01:32:38;9.27;;;8.38;;
40623;SDS011;26325;48.594;11.650;2023-05-23T01:35:04;9.13;;;8.23;;
40623;SDS011;26325;48.594;11.650;2023-05-23T01:37:31;9.32;;;8.52;;
40623;SDS011;26325;48.594;11.650;2023-05-23T01:39:58;9.88;;;9.07;;
40623;SDS011;26325;48.594;11.650;2023-05-23T01:44:52;9.57;;;8.68;;
40623;SDS011;26325;48.594;11.650;2023-05-23T01:49:43;9.30;;;8.45;;
40623;SDS011;26325;48.594;11.650;2023-05-23T01:52:10;9.68;;;8.80;;
40623;SDS011;26325;48.594;11.650;2023-05-23T01:54:37;10.20;;;9.32;;
40623;SDS011;26325;48.594;11.650;2023-05-23T01:57:07;9.50;;;8.70;;
40623;SDS011;26325;48.594;11.650;2023-05-23T01:59:34;9.10;;;8.23;;
40623;SDS011;26325;48.594;11.650;2023-05-23T02:04:26;9.02;;;8.35;;
40623;SDS011;26325;48.594;11.650;2023-05-23T02:06:52;9.30;;;8.50;;
40623;SDS011;26325;48.594;11.650;2023-05-23T02:11:44;9.40;;;8.70;;
40623;SDS011;26325;48.594;11.650;2023-05-23T02:16:38;9.70;;;8.90;;
40623;SDS011;26325;48.594;11.650;2023-05-23T02:21:29;9.93;;;9.13;;
40623;SDS011;26325;48.594;11.650;2023-05-23T02:24:00;10.35;;;9.55;;
40623;SDS011;26325;48.594;11.650;2023-05-23T02:26:26;10.05;;;9.25;;
40623;SDS011;26325;48.594;11.650;2023-05-23T02:31:17;11.68;;;10.57;;
40623;SDS011;26325;48.594;11.650;2023-05-23T02:36:08;13.05;;;12.05;;
40623;SDS011;26325;48.594;11.650;2023-05-23T02:38:34;11.98;;;10.98;;
40623;SDS011;26325;48.594;11.650;2023-05-23T02:43:28;11.50;;;10.60;;
40623;SDS011;26325;48.594;11.650;2023-05-23T02:48:20;11.32;;;10.43;;
40623;SDS011;26325;48.594;11.650;2023-05-23T02:53:12;11.55;;;10.60;;
40623;SDS011;26325;48.594;11.650;2023-05-23T02:58:03;12.13;;;10.90;;
40623;SDS011;26325;48.594;11.650;2023-05-23T03:00:30;12.07;;;11.02;;
40623;SDS011;26325;48.594;11.650;2023-05-23T03:02:57;15.55;;;14.30;;
40623;SDS011;26325;48.594;11.650;2023-05-23T03:05:25;11.90;;;10.80;;
40623;SDS011;26325;48.594;11.650;2023-05-23T03:07:50;11.80;;;10.98;;
40623;SDS011;26325;48.594;11.650;2023-05-23T03:10:19;11.63;;;10.55;;
40623;SDS011;26325;48.594;11.650;2023-05-23T03:12:45;10.77;;;9.88;;
40623;SDS011;26325;48.594;11.650;2023-05-23T03:15:11;11.80;;;10.80;;
40623;SDS011;26325;48.594;11.650;2023-05-23T03:20:02;11.02;;;10.02;;
40623;SDS011;26325;48.594;11.650;2023-05-23T03:22:34;11.75;;;10.77;;
40623;SDS011;26325;48.594;11.650;2023-05-23T03:25:00;11.02;;;10.13;;
40623;SDS011;26325;48.594;11.650;2023-05-23T03:29:51;10.68;;;9.68;;
40623;SDS011;26325;48.594;11.650;2023-05-23T03:34:42;11.23;;;10.30;;
40623;SDS011;26325;48.594;11.650;2023-05-23T03:39:33;9.93;;;9.02;;
40623;SDS011;26325;48.594;11.650;2023-05-23T03:44:24;12.35;;;11.25;;
40623;SDS011;26325;48.594;11.650;2023-05-23T03:46:50;13.75;;;12.50;;
40623;SDS011;26325;48.594;11.650;2023-05-23T03:49:15;12.55;;;11.38;;
40623;SDS011;26325;48.594;11.650;2023-05-23T03:54:06;11.43;;;10.40;;
40623;SDS011;26325;48.594;11.650;2023-05-23T03:58:59;11.52;;;10.52;;
40623;SDS011;26325;48.594;11.650;2023-05-23T04:03:51;11.60;;;10.57;;
40623;SDS011;26325;48.594;11.650;2023-05-23T04:08:44;11.98;;;11.07;;
40623;SDS011;26325;48.594;11.650;2023-05-23T04:13:38;11.45;;;10.45;;
40623;SDS011;26325;48.594;11.650;2023-05-23T04:16:03;11.73;;;10.82;;
40623;SDS011;26325;48.594;11.650;2023-05-23T04:18:32;12.18;;;11.07;;
40623;SDS011;26325;48.594;11.650;2023-05-23T04:21:00;12.43;;;11.23;;
40623;SDS011;26325;48.594;11.650;2023-05-23T04:23:29;12.23;;;11.13;;
40623;SDS011;26325;48.594;11.650;2023-05-23T04:25:55;11.48;;;10.57;;
40623;SDS011;26325;48.594;11.650;2023-05-23T04:30:47;10.88;;;9.95;;
40623;SDS011;26325;48.594;11.650;2023-05-23T04:35:39;12.27;;;11.18;;
40623;SDS011;26325;48.594;11.650;2023-05-23T04:40:33;13.70;;;12.50;;
40623;SDS011;26325;48.594;11.650;2023-05-23T04:45:26;14.15;;;12.82;;
40623;SDS011;26325;48.594;11.650;2023-05-23T04:47:54;14.95;;;13.73;;
40623;SDS011;26325;48.594;11.650;2023-05-23T04:52:48;13.32;;;12.13;;
40623;SDS011;26325;48.594;11.650;2023-05-23T04:57:42;13.85;;;12.75;;
40623;SDS011;26325;48.594;11.650;2023-05-23T05:02:37;16.20;;;14.75;;
40623;SDS011;26325;48.594;11.650;2023-05-23T05:05:03;15.40;;;14.05;;
40623;SDS011;26325;48.594;11.650;2023-05-23T05:07:29;15.70;;;14.30;;
40623;SDS011;26325;48.594;11.650;2023-05-23T05:09:55;16.45;;;14.95;;
40623;SDS011;26325;48.594;11.650;2023-05-23T05:14:47;14.38;;;13.13;;
40623;SDS011;26325;48.594;11.650;2023-05-23T05:19:38;15.32;;;14.00;;
40623;SDS011;26325;48.594;11.650;2023-05-23T05:22:03;16.80;;;15.30;;
40623;SDS011;26325;48.594;11.650;2023-05-23T05:24:29;15.20;;;14.00;;
40623;SDS011;26325;48.594;11.650;2023-05-23T05:26:55;15.55;;;14.13;;
40623;SDS011;26325;48.594;11.650;2023-05-23T05:31:47;15.90;;;14.60;;
40623;SDS011;26325;48.594;11.650;2023-05-23T05:36:40;16.80;;;15.27;;
40623;SDS011;26325;48.594;11.650;2023-05-23T05:39:11;14.50;;;13.30;;
40623;SDS011;26325;48.594;11.650;2023-05-23T05:41:38;16.30;;;14.75;;
40623;SDS011;26325;48.594;11.650;2023-05-23T05:44:04;15.30;;;13.95;;
40623;SDS011;26325;48.594;11.650;2023-05-23T05:46:30;16.83;;;15.38;;
40623;SDS011;26325;48.594;11.650;2023-05-23T05:48:56;15.70;;;14.40;;
40623;SDS011;26325;48.594;11.650;2023-05-23T05:51:22;17.10;;;15.50;;
40623;SDS011;26325;48.594;11.650;2023-05-23T05:53:49;16.15;;;14.75;;
40623;SDS011;26325;48.594;11.650;2023-05-23T05:56:15;14.43;;;13.18;;
40623;SDS011;26325;48.594;11.650;2023-05-23T05:58:42;14.63;;;13.43;;
40623;SDS011;26325;48.594;11.650;2023-05-23T06:01:07;14.68;;;13.38;;
40623;SDS011;26325;48.594;11.650;2023-05-23T06:03:33;15.52;;;14.20;;
40623;SDS011;26325;48.594;11.650;2023-05-23T06:05:59;14.73;;;13.52;;
40623;SDS011;26325;48.594;11.650;2023-05-23T06:08:25;15.18;;;13.95;;
40623;SDS011;26325;48.594;11.650;2023-05-23T06:10:52;14.40;;;13.20;;
40623;SDS011;26325;48.594;11.650;2023-05-23T06:13:18;14.75;;;13.55;;
40623;SDS011;26325;48.594;11.650;2023-05-23T06:15:44;14.55;;;13.35;;
40623;SDS011;26325;48.594;11.650;2023-05-23T06:18:10;13.95;;;12.73;;
40623;SDS011;26325;48.594;11.650;2023-05-23T06:20:36;14.05;;;12.95;;
40623;SDS011;26325;48.594;11.650;2023-05-23T06:23:01;13.07;;;11.95;;
40623;SDS011;26325;48.594;11.650;2023-05-23T06:25:30;14.80;;;13.48;;
40623;SDS011;26325;48.594;11.650;2023-05-23T06:27:55;14.10;;;12.90;;
40623;SDS011;26325;48.594;11.650;2023-05-23T06:30:21;13.10;;;12.10;;
40623;SDS011;26325;48.594;11.650;2023-05-23T06:32:47;14.30;;;13.20;;
40623;SDS011;26325;48.594;11.650;2023-05-23T06:35:13;14.52;;;13.32;;
40623;SDS011;26325;48.594;11.650;2023-05-23T06:37:39;13.70;;;12.68;;
40623;SDS011;26325;48.594;11.650;2023-05-23T06:40:13;13.18;;;12.00;;
40623;SDS011;26325;48.594;11.650;2023-05-23T06:42:40;12.30;;;11.40;;
40623;SDS011;26325;48.594;11.650;2023-05-23T06:45:07;13.55;;;12.55;;
40623;SDS011;26325;48.594;11.650;2023-05-23T06:47:33;13.75;;;12.68;;
40623;SDS011;26325;48.594;11.650;2023-05-23T06:49:59;14.35;;;13.00;;
40623;SDS011;26325;48.594;11.650;2023-05-23T06:52:26;12.80;;;11.77;;
40623;SDS011;26325;48.594;11.650;2023-05-23T06:54:51;12.63;;;11.52;;
40623;SDS011;26325;48.594;11.650;2023-05-23T06:57:17;13.07;;;11.98;;
40623;SDS011;26325;48.594;11.650;2023-05-23T06:59:43;13.40;;;12.20;;
40623;SDS011;26325;48.594;11.650;2023-05-23T07:02:08;13.35;;;12.25;;
40623;SDS011;26325;48.594;11.650;2023-05-23T07:04:36;13.30;;;12.18;;
40623;SDS011;26325;48.594;11.650;2023-05-23T07:07:01;14.80;;;13.40;;
40623;SDS011;26325;48.594;11.650;2023-05-23T07:09:27;15.40;;;14.00;;
40623;SDS011;26325;48.594;11.650;2023-05-23T07:11:53;12.52;;;11.52;;
40623;SDS011;26325;48.594;11.650;2023-05-23T07:14:19;13.05;;;12.05;;
40623;SDS011;26325;48.594;11.650;2023-05-23T07:16:45;13.50;;;12.18;;
40623;SDS011;26325;48.594;11.650;2023-05-23T07:19:11;13.30;;;12.30;;
40623;SDS011;26325;48.594;11.650;2023-05-23T07:21:39;13.30;;;12.30;;
40623;SDS011;26325;48.594;11.650;2023-05-23T07:24:04;13.70;;;12.60;;
40623;SDS011;26325;48.594;11.650;2023-05-23T07:26:32;16.20;;;14.82;;
40623;SDS011;26325;48.594;11.650;2023-05-23T07:29:00;13.77;;;12.75;;
40623;SDS011;26325;48.594;11.650;2023-05-23T07:31:26;15.20;;;13.90;;
40623;SDS011;26325;48.594;11.650;2023-05-23T07:33:51;14.25;;;13.15;;
40623;SDS011;26325;48.594;11.650;2023-05-23T07:36:17;14.52;;;13.13;;
40623;SDS011;26325;48.594;11.650;2023-05-23T07:38:42;14.10;;;12.90;;
40623;SDS011;26325;48.594;11.650;2023-05-23T07:41:08;15.02;;;13.77;;
40623;SDS011;26325;48.594;11.650;2023-05-23T07:43:34;13.55;;;12.52;;
40623;SDS011;26325;48.594;11.650;2023-05-23T07:45:59;13.65;;;12.48;;
40623;SDS011;26325;48.594;11.650;2023-05-23T07:48:25;15.25;;;13.70;;
40623;SDS011;26325;48.594;11.650;2023-05-23T07:50:51;14.38;;;13.02;;
40623;SDS011;26325;48.594;11.650;2023-05-23T07:53:20;12.73;;;11.73;;
40623;SDS011;26325;48.594;11.650;2023-05-23T07:55:46;12.95;;;11.95;;
40623;SDS011;26325;48.594;11.650;2023-05-23T07:58:12;12.48;;;11.50;;
40623;SDS011;26325;48.594;11.650;2023-05-23T08:00:38;14.63;;;13.00;;
40623;SDS011;26325;48.594;11.650;2023-05-23T08:03:06;12.93;;;11.90;;
40623;SDS011;26325;48.594;11.650;2023-05-23T08:05:33;13.30;;;12.20;;
40623;SDS011;26325;48.594;11.650;2023-05-23T08:07:58;12.23;;;11.13;;
40623;SDS011;26325;48.594;11.650;2023-05-23T08:10:24;12.82;;;11.82;;
40623;SDS011;26325;48.594;11.650;2023-05-23T08:12:52;13.75;;;12.65;;
40623;SDS011;26325;48.594;11.650;2023-05-23T08:15:18;13.30;;;12.20;;
40623;SDS011;26325;48.594;11.650;2023-05-23T08:17:49;13.98;;;12.88;;
40623;SDS011;26325;48.594;11.650;2023-05-23T08:20:14;12.73;;;11.80;;
40623;SDS011;26325;48.594;11.650;2023-05-23T08:22:40;12.85;;;11.80;;
40623;SDS011;26325;48.594;11.650;2023-05-23T08:25:06;11.77;;;10.82;;
40623;SDS011;26325;48.594;11.650;2023-05-23T08:27:32;13.43;;;12.13;;
40623;SDS011;26325;48.594;11.650;2023-05-23T08:30:02;10.32;;;9.57;;
40623;SDS011;26325;48.594;11.650;2023-05-23T08:32:29;11.82;;;10.93;;
40623;SDS011;26325;48.594;11.650;2023-05-23T08:34:54;12.85;;;11.80;;
40623;SDS011;26325;48.594;11.650;2023-05-23T08:37:20;11.55;;;10.55;;
40623;SDS011;26325;48.594;11.650;2023-05-23T08:39:45;11.68;;;10.65;;
40623;SDS011;26325;48.594;11.650;2023-05-23T08:42:11;11.73;;;10.73;;
40623;SDS011;26325;48.594;11.650;2023-05-23T08:44:36;10.65;;;9.85;;
40623;SDS011;26325;48.594;11.650;2023-05-23T08:47:03;11.73;;;10.80;;
40623;SDS011;26325;48.594;11.650;2023-05-23T08:49:30;9.98;;;9.27;;
40623;SDS011;26325;48.594;11.650;2023-05-23T08:51:58;11.55;;;10.73;;
40623;SDS011;26325;48.594;11.650;2023-05-23T08:54:27;12.80;;;11.75;;
40623;SDS011;26325;48.594;11.650;2023-05-23T08:56:59;11.27;;;10.48;;
40623;SDS011;26325;48.594;11.650;2023-05-23T08:59:26;12.55;;;11.55;;
40623;SDS011;26325;48.594;11.650;2023-05-23T09:01:53;13.85;;;12.65;;
40623;SDS011;26325;48.594;11.650;2023-05-23T09:04:20;10.95;;;10.13;;
40623;SDS011;26325;48.594;11.650;2023-05-23T09:06:46;11.35;;;10.40;;
40623;SDS011;26325;48.594;11.650;2023-05-23T09:09:12;12.07;;;10.98;;
40623;SDS011;26325;48.594;11.650;2023-05-23T09:11:38;11.93;;;11.02;;
40623;SDS011;26325;48.594;11.650;2023-05-23T09:14:04;10.65;;;9.85;;
40623;SDS011;26325;48.594;11.650;2023-05-23T09:16:33;9.68;;;8.98;;
40623;SDS011;26325;48.594;11.650;2023-05-23T09:18:59;10.65;;;9.75;;
40623;SDS011;26325;48.594;11.650;2023-05-23T09:21:35;10.38;;;9.57;;
40623;SDS011;26325;48.594;11.650;2023-05-23T09:24:01;11.45;;;10.48;;
40623;SDS011;26325;48.594;11.650;2023-05-23T09:26:26;10.23;;;9.52;;
40623;SDS011;26325;48.594;11.650;2023-05-23T09:28:55;9.95;;;9.25;;
40623;SDS011;26325;48.594;11.650;2023-05-23T09:31:22;10.93;;;10.10;;
40623;SDS011;26325;48.594;11.650;2023-05-23T09:33:51;9.98;;;9.27;;
40623;SDS011;26325;48.594;11.650;2023-05-23T09:36:17;9.23;;;8.63;;
40623;SDS011;26325;48.594;11.650;2023-05-23T09:38:46;10.65;;;9.65;;
40623;SDS011;26325;48.594;11.650;2023-05-23T09:41:18;9.95;;;9.25;;
40623;SDS011;26325;48.594;11.650;2023-05-23T09:43:50;9.55;;;8.75;;
40623;SDS011;26325;48.594;11.650;2023-05-23T09:46:18;10.52;;;9.75;;
40623;SDS011;26325;48.594;11.650;2023-05-23T09:48:49;10.60;;;9.80;;
40623;SDS011;26325;48.594;11.650;2023-05-23T09:51:28;10.30;;;9.50;;
40623;SDS011;26325;48.594;11.650;2023-05-23T09:53:58;11.88;;;10.98;;
40623;SDS011;26325;48.594;11.650;2023-05-23T09:56:24;10.57;;;9.77;;
40623;SDS011;26325;48.594;11.650;2023-05-23T09:58:51;9.95;;;9.25;;
40623;SDS011;26325;48.594;11.650;2023-05-23T10:01:19;10.18;;;9.38;;
40623;SDS011;26325;48.594;11.650;2023-05-23T10:03:52;10.38;;;9.60;;
40623;SDS011;26325;48.594;11.650;2023-05-23T10:06:25;10.80;;;10.00;;
40623;SDS011;26325;48.594;11.650;2023-05-23T10:09:06;10.82;;;10.02;;
40623;SDS011;26325;48.594;11.650;2023-05-23T10:17:04;11.20;;;10.20;;
40623;SDS011;26325;48.594;11.650;2023-05-23T10:22:19;10.70;;;9.85;;
40623;SDS011;26325;48.594;11.650;2023-05-23T10:24:48;10.15;;;9.27;;
40623;SDS011;26325;48.594;11.650;2023-05-23T10:27:15;9.75;;;8.93;;
40623;SDS011;26325;48.594;11.650;2023-05-23T10:29:42;10.80;;;10.00;;
40623;SDS011;26325;48.594;11.650;2023-05-23T10:32:09;10.13;;;9.32;;
40623;SDS011;26325;48.594;11.650;2023-05-23T10:34:45;10.20;;;9.30;;
40623;SDS011;26325;48.594;11.650;2023-05-23T10:37:25;8.35;;;7.70;;
40623;SDS011;26325;48.594;11.650;2023-05-23T10:43:09;8.63;;;8.02;;
40623;SDS011;26325;48.594;11.650;2023-05-23T10:45:45;8.48;;;7.88;;
40623;SDS011;26325;48.594;11.650;2023-05-23T10:48:23;8.98;;;8.23;;
40623;SDS011;26325;48.594;11.650;2023-05-23T10:51:06;10.25;;;9.23;;
40623;SDS011;26325;48.594;11.650;2023-05-23T10:53:38;8.73;;;7.93;;
40623;SDS011;26325;48.594;11.650;2023-05-23T10:56:06;9.85;;;9.10;;
40623;SDS011;26325;48.594;11.650;2023-05-23T10:58:33;8.10;;;7.60;;
40623;SDS011;26325;48.594;11.650;2023-05-23T11:01:13;8.95;;;8.25;;
40623;SDS011;26325;48.594;11.650;2023-05-23T11:06:38;10.07;;;9.20;;
40623;SDS011;26325;48.594;11.650;2023-05-23T11:09:11;8.55;;;7.85;;
40623;SDS011;26325;48.594;11.650;2023-05-23T11:17:17;8.93;;;8.33;;
40623;SDS011;26325;48.594;11.650;2023-05-23T11:19:55;10.10;;;9.40;;
40623;SDS011;26325;48.594;11.650;2023-05-23T11:22:28;9.55;;;8.77;;
40623;SDS011;26325;48.594;11.650;2023-05-23T11:24:56;10.68;;;9.88;;
40623;SDS011;26325;48.594;11.650;2023-05-23T11:27:39;8.38;;;7.68;;
40623;SDS011;26325;48.594;11.650;2023-05-23T11:30:10;9.13;;;8.32;;
40623;SDS011;26325;48.594;11.650;2023-05-23T11:32:39;9.27;;;8.43;;
40623;SDS011;26325;48.594;11.650;2023-05-23T11:35:07;10.02;;;9.15;;
40623;SDS011;26325;48.594;11.650;2023-05-23T11:37:34;9.27;;;8.25;;
40623;SDS011;26325;48.594;11.650;2023-05-23T11:40:24;8.95;;;8.15;;
40623;SDS011;26325;48.594;11.650;2023-05-23T11:42:56;10.15;;;9.35;;
40623;SDS011;26325;48.594;11.650;2023-05-23T11:45:22;8.82;;;8.13;;
40623;SDS011;26325;48.594;11.650;2023-05-23T11:47:48;8.30;;;7.70;;
40623;SDS011;26325;48.594;11.650;2023-05-23T11:50:14;7.68;;;7.07;;
40623;SDS011;26325;48.594;11.650;2023-05-23T11:52:41;7.97;;;7.20;;
40623;SDS011;26325;48.594;11.650;2023-05-23T11:55:07;8.15;;;7.55;;
40623;SDS011;26325;48.594;11.650;2023-05-23T12:00:17;7.75;;;7.20;;
40623;SDS011;26325;48.594;11.650;2023-05-23T12:02:44;7.25;;;6.75;;
40623;SDS011;26325;48.594;11.650;2023-05-23T12:05:12;7.55;;;7.03;;
40623;SDS011;26325;48.594;11.650;2023-05-23T12:07:46;8.10;;;7.47;;
40623;SDS011;26325;48.594;11.650;2023-05-23T12:10:14;7.90;;;7.30;;
40623;SDS011;26325;48.594;11.650;2023-05-23T12:12:43;7.80;;;7.20;;
40623;SDS011;26325;48.594;11.650;2023-05-23T12:15:09;9.20;;;8.32;;
40623;SDS011;26325;48.594;11.650;2023-05-23T12:17:43;7.65;;;7.10;;
40623;SDS011;26325;48.594;11.650;2023-05-23T12:20:12;7.32;;;6.82;;
40623;SDS011;26325;48.594;11.650;2023-05-23T12:22:38;8.38;;;7.78;;
40623;SDS011;26325;48.594;11.650;2023-05-23T12:25:07;7.82;;;7.30;;
40623;SDS011;26325;48.594;11.650;2023-05-23T12:27:35;7.50;;;6.97;;
40623;SDS011;26325;48.594;11.650;2023-05-23T12:30:06;8.77;;;8.05;;
40623;SDS011;26325;48.594;11.650;2023-05-23T12:32:35;7.50;;;7.00;;
40623;SDS011;26325;48.594;11.650;2023-05-23T12:35:10;7.80;;;7.20;;
40623;SDS011;26325;48.594;11.650;2023-05-23T12:37:43;7.40;;;6.80;;
40623;SDS011;26325;48.594;11.650;2023-05-23T12:40:16;6.68;;;6.28;;
40623;SDS011;26325;48.594;11.650;2023-05-23T12:42:53;8.27;;;7.60;;
40623;SDS011;26325;48.594;11.650;2023-05-23T12:45:22;7.20;;;6.80;;
40623;SDS011;26325;48.594;11.650;2023-05-23T12:47:54;8.48;;;7.90;;
40623;SDS011;26325;48.594;11.650;2023-05-23T12:50:20;8.25;;;7.53;;
40623;SDS011;26325;48.594;11.650;2023-05-23T12:52:46;7.30;;;6.85;;
40623;SDS011;26325;48.594;11.650;2023-05-23T12:55:12;7.00;;;6.53;;
40623;SDS011;26325;48.594;11.650;2023-05-23T12:57:37;7.50;;;7.05;;
40623;SDS011;26325;48.594;11.650;2023-05-23T13:00:03;8.00;;;7.28;;
40623;SDS011;26325;48.594;11.650;2023-05-23T13:02:29;7.47;;;6.97;;
40623;SDS011;26325;48.594;11.650;2023-05-23T13:04:57;7.63;;;6.95;;
40623;SDS011;26325;48.594;11.650;2023-05-23T13:07:22;8.07;;;7.40;;
40623;SDS011;26325;48.594;11.650;2023-05-23T13:09:48;7.70;;;7.20;;
40623;SDS011;26325;48.594;11.650;2023-05-23T13:12:20;7.10;;;6.60;;
40623;SDS011;26325;48.594;11.650;2023-05-23T13:14:47;7.15;;;6.72;;
40623;SDS011;26325;48.594;11.650;2023-05-23T13:17:22;7.43;;;6.82;;
40623;SDS011;26325;48.594;11.650;2023-05-23T13:19:47;8.10;;;7.50;;
40623;SDS011;26325;48.594;11.650;2023-05-23T13:22:13;6.68;;;6.18;;
40623;SDS011;26325;48.594;11.650;2023-05-23T13:24:39;6.30;;;5.80;;
40623;SDS011;26325;48.594;11.650;2023-05-23T13:27:05;6.38;;;5.93;;
40623;SDS011;26325;48.594;11.650;2023-05-23T13:29:32;6.40;;;5.90;;
40623;SDS011;26325;48.594;11.650;2023-05-23T13:31:58;6.97;;;6.45;;
40623;SDS011;26325;48.594;11.650;2023-05-23T13:34:24;7.25;;;6.75;;
40623;SDS011;26325;48.594;11.650;2023-05-23T13:36:54;6.60;;;6.20;;
40623;SDS011;26325;48.594;11.650;2023-05-23T13:39:20;6.70;;;6.10;;
40623;SDS011;26325;48.594;11.650;2023-05-23T13:41:48;7.03;;;6.53;;
40623;SDS011;26325;48.594;11.650;2023-05-23T13:44:16;6.40;;;5.90;;
40623;SDS011;26325;48.594;11.650;2023-05-23T13:46:42;6.43;;;5.88;;
40623;SDS011;26325;48.594;11.650;2023-05-23T13:49:08;7.32;;;6.50;;
40623;SDS011;26325;48.594;11.650;2023-05-23T13:51:33;6.40;;;5.90;;
40623;SDS011;26325;48.594;11.650;2023-05-23T13:54:02;6.10;;;5.70;;
40623;SDS011;26325;48.594;11.650;2023-05-23T13:56:28;5.85;;;5.50;;
40623;SDS011;26325;48.594;11.650;2023-05-23T13:58:54;5.80;;;5.40;;
40623;SDS011;26325;48.594;11.650;2023-05-23T14:01:19;6.57;;;5.97;;
40623;SDS011;26325;48.594;11.650;2023-05-23T14:03:45;6.00;;;5.50;;
40623;SDS011;26325;48.594;11.650;2023-05-23T14:06:15;5.93;;;5.53;;
40623;SDS011;26325;48.594;11.650;2023-05-23T14:08:41;4.93;;;4.63;;
40623;SDS011;26325;48.594;11.650;2023-05-23T14:11:07;5.47;;;5.07;;
40623;SDS011;26325;48.594;11.650;2023-05-23T14:13:32;4.95;;;4.65;;
40623;SDS011;26325;48.594;11.650;2023-05-23T14:15:58;4.80;;;4.50;;
40623;SDS011;26325;48.594;11.650;2023-05-23T14:18:24;4.53;;;4.15;;
40623;SDS011;26325;48.594;11.650;2023-05-23T14:20:49;4.47;;;4.18;;
40623;SDS011;26325;48.594;11.650;2023-05-23T14:23:15;4.60;;;4.30;;
40623;SDS011;26325;48.594;11.650;2023-05-23T14:25:42;4.90;;;4.55;;
40623;SDS011;26325;48.594;11.650;2023-05-23T14:28:08;5.85;;;4.38;;
40623;SDS011;26325;48.594;11.650;2023-05-23T14:30:34;4.03;;;3.83;;
40623;SDS011;26325;48.594;11.650;2023-05-23T14:33:02;4.10;;;3.80;;
40623;SDS011;26325;48.594;11.650;2023-05-23T14:35:28;3.80;;;3.60;;
40623;SDS011;26325;48.594;11.650;2023-05-23T14:37:53;4.40;;;4.10;;
40623;SDS011;26325;48.594;11.650;2023-05-23T14:40:22;4.45;;;4.15;;
40623;SDS011;26325;48.594;11.650;2023-05-23T14:42:50;13.52;;;12.40;;
40623;SDS011;26325;48.594;11.650;2023-05-23T14:45:16;6.00;;;5.60;;
40623;SDS011;26325;48.594;11.650;2023-05-23T14:47:47;4.63;;;4.00;;
40623;SDS011;26325;48.594;11.650;2023-05-23T14:50:12;3.88;;;3.60;;
40623;SDS011;26325;48.594;11.650;2023-05-23T14:52:40;4.35;;;4.00;;
40623;SDS011;26325;48.594;11.650;2023-05-23T14:55:08;3.80;;;3.60;;
40623;SDS011;26325;48.594;11.650;2023-05-23T14:57:34;3.92;;;3.63;;
40623;SDS011;26325;48.594;11.650;2023-05-23T15:00:02;3.40;;;3.10;;
40623;SDS011;26325;48.594;11.650;2023-05-23T15:02:30;4.15;;;3.85;;
40623;SDS011;26325;48.594;11.650;2023-05-23T15:04:56;3.40;;;3.20;;
40623;SDS011;26325;48.594;11.650;2023-05-23T15:07:22;3.28;;;3.00;;
40623;SDS011;26325;48.594;11.650;2023-05-23T15:09:50;3.33;;;3.05;;
40623;SDS011;26325;48.594;11.650;2023-05-23T15:12:15;3.53;;;3.22;;
40623;SDS011;26325;48.594;11.650;2023-05-23T15:14:41;5.72;;;3.17;;
40623;SDS011;26325;48.594;11.650;2023-05-23T15:17:08;3.10;;;2.90;;
40623;SDS011;26325;48.594;11.650;2023-05-23T15:19:34;3.20;;;2.90;;
40623;SDS011;26325;48.594;11.650;2023-05-23T15:24:28;3.28;;;2.97;;
40623;SDS011;26325;48.594;11.650;2023-05-23T15:26:53;3.03;;;2.83;;
40623;SDS011;26325;48.594;11.650;2023-05-23T15:29:19;3.20;;;3.00;;
40623;SDS011;26325;48.594;11.650;2023-05-23T15:31:49;2.90;;;2.70;;
40623;SDS011;26325;48.594;11.650;2023-05-23T15:34:16;2.55;;;2.35;;
40623;SDS011;26325;48.594;11.650;2023-05-23T15:36:41;3.00;;;2.80;;
40623;SDS011;26325;48.594;11.650;2023-05-23T15:39:07;3.88;;;3.00;;
40623;SDS011;26325;48.594;11.650;2023-05-23T15:41:32;2.60;;;2.40;;
40623;SDS011;26325;48.594;11.650;2023-05-23T15:44:00;2.35;;;2.25;;
40623;SDS011;26325;48.594;11.650;2023-05-23T15:46:26;3.20;;;3.00;;
40623;SDS011;26325;48.594;11.650;2023-05-23T15:48:54;2.83;;;2.63;;
40623;SDS011;26325;48.594;11.650;2023-05-23T15:51:26;2.97;;;2.78;;
40623;SDS011;26325;48.594;11.650;2023-05-23T15:53:52;3.10;;;2.90;;
40623;SDS011;26325;48.594;11.650;2023-05-23T15:56:17;2.80;;;2.60;;
40623;SDS011;26325;48.594;11.650;2023-05-23T15:58:43;2.90;;;2.70;;
40623;SDS011;26325;48.594;11.650;2023-05-23T16:01:09;2.80;;;2.60;;
40623;SDS011;26325;48.594;11.650;2023-05-23T16:03:35;4.60;;;2.75;;
40623;SDS011;26325;48.594;11.650;2023-05-23T16:06:01;3.08;;;2.70;;
40623;SDS011;26325;48.594;11.650;2023-05-23T16:08:27;2.60;;;2.40;;
40623;SDS011;26325;48.594;11.650;2023-05-23T16:10:53;2.42;;;2.33;;
40623;SDS011;26325;48.594;11.650;2023-05-23T16:13:18;2.20;;;2.10;;
40623;SDS011;26325;48.594;11.650;2023-05-23T16:15:44;3.42;;;2.53;;
40623;SDS011;26325;48.594;11.650;2023-05-23T16:18:10;2.58;;;2.38;;
40623;SDS011;26325;48.594;11.650;2023-05-23T16:20:35;3.15;;;2.60;;
40623;SDS011;26325;48.594;11.650;2023-05-23T16:23:01;2.80;;;2.60;;
40623;SDS011;26325;48.594;11.650;2023-05-23T16:25:27;2.83;;;2.63;;
40623;SDS011;26325;48.594;11.650;2023-05-23T16:27:52;2.88;;;2.60;;
40623;SDS011;26325;48.594;11.650;2023-05-23T16:30:18;2.40;;;2.13;;